الصفحة الرئيسية
METAR-TAF:

METAR-TAF

مطار :

Winslow, أريزونا, الولايات المتحدة

دائرة عرض: 35-01-41N, خط طول: 110-43-15W, ارتفاع: 1505 متر

مراقبة الطقس الحالي

تاريخ ووقت الإصدار 1ساعة و 3 دقيقة قبل الساعة 03:56UTC
ريح 4 عقدة من الغرب/الجنوب الغربي
درجة الحرارة -3°درجة مئوية
الرطوبة 46%
ضغط 1030 hPa
الرؤية: 16.1 كم
سماء صافية

METAR: KINW 140356Z AUTO 24004KT 10SM CLR M03/M13 A3041 RMK AO2 SLP322 T10331133

زمن: 21:59 (04:59 UTC)

توقعات

تاريخ ووقت الإصدار 5ساعات و 32 دقيقة قبل الساعة 23:27UTC
التوقعات صالحة من14 الساعة 00 UTC إلى 14 الساعة 24 UTC
ريح 8 عقدة من الشمال/الشمال الغربي
الرؤية: 10 كم
غيوم متفرقة على ارتفاع 25000 قدم
من 14 الساعة 0200 UTC
ريح 5 عقدةمن اتجاهات متغيرة
الرؤية: 10 كم
سماء صافية

TAF: KINW 132327Z 1400/1424 33008KT P6SM SCT250 FM140200 VRB05KT P6SM SKC

أرصاد الطقس والتوقعات من أكثر من 4000 مطار (تقارير الطقس للمطار METAR والتنبؤ بالطقس بالمطارTAF).

المحطات المتاحة هي النقط الصفراء والحمراء على الخريطة.

حرك المؤشر فوق النقطة لمعرفة اسم المحطة.

ثم انقر لمعرفة أرصاد وتوقعات الطقس.

لتغيير الخارطة: اضغط على الأزرار الخضراء مع رمز الصليب الأسود للتكبير. على الزر الأخضر مع شرطة للتصغير، أو على الأسهم الخضراء للخرائط المجاورة.


METAR-TAF: